Gulf Shores, AL (36542)

7:19 AM CDT on March 23, 2017 (GMT -0500)
West Beach | | Change Station

Elev 39 ft 30.25 °N, 87.72 °W | Updated 4 minutes ago

Clear
Clear
62.2 °F
Feels Like 62.2 °F
N
2.0
Wind Variable Wind from East
Gusts 3.0 mph

Today
High -- | Low -- °F
--% Chance of Precip.
Yesterday
High -- | Low -- °F
Precip. -- in
Pressure 30.19 in
Visibility 10.0 miles
Clouds Clear
Dew Point 52 °F
Humidity 70%
Rainfall 0.00 in
Snow Depth Not available.
6:50 AM 7:04 PM
Waning Crescent, 24% visible
METAR KJKA 231215Z AUTO 05003KT 10SM CLR 15/10 A3019 RMK AO2 T01450100
Pressure 30.19 in
Visibility 10.0 miles
Clouds Clear
Dew Point 52 °F
Humidity 70%
Rainfall 0.00 in
Snow Depth Not available.
6:50 AM 7:04 PM
Waning Crescent, 24% visible
METAR KJKA 231215Z AUTO 05003KT 10SM CLR 15/10 A3019 RMK AO2 T01450100

Get Severe Weather Alerts

Thanks for signing up!

Be on the lookout for a verification email in your inbox.

You'll start receiving the daily forecast at 8 AM.

×

10-Day Weather Forecast

Almanac

Astronomy

Mar. 23, 2017 Rise Set
Actual Time
Civil Twilight
Nautical Twilight
Astronomical Twilight
Moon
Length of Visible Light
Length of Day
Tomorrow will be .
, % of the Moon is Illuminated

Today's Extremes

State Highs State Lows

Community

WunderPhotos

Upload Photos

1,962,540 photos uploaded!

WunderBlog® & News

Nearby

Air Quality

  Air Quality AQ Index Pollutant
Not available.

Snow Depth

Station Depth Elevation

Earthquake Activity

City Distance Mag. Time & Date
Minimum magnitude displayed is 2.5.

Earthquake Activity

City Distance Mag. Time & Date
Minimum magnitude displayed is 2.5.

Coastal Water Temperatures

Place Temperature

Stations

Nearby Weather Stations

Station Location Temp. Windchill Dew Point Humidity Wind Precip. Elev Updated Type
                   

Watches & Warnings

There are currently no watches in effect.